Wolcottville, Indiana
Current Conditions -  °F | °C
As of 1:35 PM on Monday 22 Dec 2014 (Local Time) from KANQ Reporting Station
Overcast Overcast  
Wind Chill: 26°   Ceiling: 3700
Heat Index: 34°   Visibility: 10mi
Dew Point: 28°   Wind: 9mph
Humidity: 81%   Direction: 120°ESE
Pressure: 29.9"   Gusts: NA
Location:  41.53°N, 85.37°W
Report Text: KANQ 221835Z AUTO 12008KT 10SM BKN037 BKN055 OVC085 01/M02 A2990 RMK
Loading
Personal Weather Stations






























Interactive Weather Map New forecast layout! Learn more

10-Day Weather Forecast

Advertisements
Track Severe Weather on mobile